Time,TemperatureF,DewpointF,PressureIn,WindDirection,WindDirectionDegrees,WindSpeedMPH,WindSpeedGustMPH,Humidity,HourlyPrecipIn,Conditions,Clouds,dailyrainin,SoftwareType,DateUTC
2013-06-28 00:02:00,67.6,63.3,29.54,SSE,168,0.0,0.0,86,0.00,,,0.00,Wunderground v.1.15,2013-06-28 04:02:00,
2013-06-28 00:07:00,67.4,63.1,29.54,SSE,168,0.0,0.0,86,0.00,,,0.00,Wunderground v.1.15,2013-06-28 04:07:00,
2013-06-28 00:12:00,67.4,63.1,29.54,SSE,168,0.0,0.0,86,0.00,,,0.00,Wunderground v.1.15,2013-06-28 04:12:00,
2013-06-28 00:17:00,67.3,63.0,29.54,SSE,168,0.0,0.0,86,0.00,,,0.00,Wunderground v.1.15,2013-06-28 04:17:00,
2013-06-28 00:22:00,67.3,63.0,29.54,SSE,168,0.0,0.0,86,0.00,,,0.00,Wunderground v.1.15,2013-06-28 04:22:00,
2013-06-28 00:27:00,67.3,63.0,29.54,SSE,168,0.0,0.0,86,0.00,,,0.00,Wunderground v.1.15,2013-06-28 04:27:00,
2013-06-28 00:37:00,67.3,63.0,29.54,SSE,168,0.0,0.0,86,0.00,,,0.00,Wunderground v.1.15,2013-06-28 04:37:00,
2013-06-28 00:47:00,67.3,63.0,29.54,SSE,168,0.0,0.0,86,0.00,,,0.00,Wunderground v.1.15,2013-06-28 04:47:00,
2013-06-28 00:52:00,67.3,63.0,29.54,SSE,168,0.0,0.0,86,0.00,,,0.00,Wunderground v.1.15,2013-06-28 04:52:00,
2013-06-28 01:02:00,67.1,62.8,29.53,SSE,168,0.0,0.0,86,0.00,,,0.00,Wunderground v.1.15,2013-06-28 05:02:00,
2013-06-28 01:07:00,67.1,63.1,29.53,SSE,168,0.0,0.0,87,0.00,,,0.00,Wunderground v.1.15,2013-06-28 05:07:00,
2013-06-28 01:17:00,67.1,63.1,29.53,SSE,168,0.0,0.0,87,0.00,,,0.00,Wunderground v.1.15,2013-06-28 05:17:00,
2013-06-28 01:23:00,66.9,62.9,29.53,SSE,168,0.0,0.0,87,0.00,,,0.00,Wunderground v.1.15,2013-06-28 05:23:00,
2013-06-28 01:32:00,66.9,62.9,29.52,SSE,168,0.0,0.0,87,0.00,,,0.00,Wunderground v.1.15,2013-06-28 05:32:00,
2013-06-28 01:37:00,66.8,63.1,29.52,SSE,168,0.0,0.0,88,0.00,,,0.00,Wunderground v.1.15,2013-06-28 05:37:00,
2013-06-28 01:47:00,66.8,63.1,29.52,SSE,168,0.0,0.0,88,0.00,,,0.00,Wunderground v.1.15,2013-06-28 05:47:00,
2013-06-28 01:52:00,66.6,62.9,29.52,SSE,168,0.0,0.0,88,0.00,,,0.00,Wunderground v.1.15,2013-06-28 05:52:00,
2013-06-28 02:02:00,66.6,62.9,29.52,SSE,168,0.0,0.0,88,0.00,,,0.00,Wunderground v.1.15,2013-06-28 06:02:00,
2013-06-28 02:07:00,66.6,62.9,29.52,SSE,168,0.0,0.0,88,0.00,,,0.00,Wunderground v.1.15,2013-06-28 06:07:00,
2013-06-28 02:17:00,66.4,63.1,29.52,SSE,168,0.0,0.0,89,0.00,,,0.00,Wunderground v.1.15,2013-06-28 06:17:00,
2013-06-28 02:22:00,66.4,63.1,29.52,SSE,168,0.0,0.0,89,0.00,,,0.00,Wunderground v.1.15,2013-06-28 06:22:00,
2013-06-28 02:32:00,66.4,63.1,29.51,SSE,168,0.0,0.0,89,0.00,,,0.00,Wunderground v.1.15,2013-06-28 06:32:00,
2013-06-28 02:37:00,66.3,63.0,29.51,SSE,168,0.0,0.0,89,0.00,,,0.00,Wunderground v.1.15,2013-06-28 06:37:00,
2013-06-28 02:47:00,66.3,63.0,29.51,SSE,168,0.0,0.0,89,0.00,,,0.00,Wunderground v.1.15,2013-06-28 06:47:00,
2013-06-28 02:53:00,66.3,63.0,29.51,SSE,168,0.0,0.0,89,0.00,,,0.00,Wunderground v.1.15,2013-06-28 06:53:00,
2013-06-28 03:02:00,66.1,62.8,29.50,SSE,168,0.0,0.0,89,0.00,,,0.00,Wunderground v.1.15,2013-06-28 07:02:00,
2013-06-28 03:12:00,66.1,62.8,29.50,SSE,168,0.0,0.0,89,0.00,,,0.00,Wunderground v.1.15,2013-06-28 07:12:00,
2013-06-28 03:22:00,66.1,62.8,29.49,SSE,168,0.0,0.0,89,0.00,,,0.00,Wunderground v.1.15,2013-06-28 07:22:00,
2013-06-28 03:32:00,66.1,63.1,29.48,SSE,168,0.0,0.0,90,0.00,,,0.00,Wunderground v.1.15,2013-06-28 07:32:00,
2013-06-28 03:37:00,66.1,63.1,29.48,SSE,168,0.0,0.0,90,0.00,,,0.00,Wunderground v.1.15,2013-06-28 07:37:00,
2013-06-28 03:47:00,66.3,63.3,29.48,SSE,168,0.0,0.0,90,0.00,,,0.00,Wunderground v.1.15,2013-06-28 07:47:00,
2013-06-28 03:52:00,66.3,63.3,29.48,SSE,168,0.0,0.0,90,0.00,,,0.00,Wunderground v.1.15,2013-06-28 07:52:00,
2013-06-28 04:02:00,66.3,63.3,29.48,SSE,168,0.0,0.0,90,0.00,,,0.00,Wunderground v.1.15,2013-06-28 08:02:00,
2013-06-28 04:07:00,66.4,63.4,29.48,SSE,168,0.0,0.0,90,0.00,,,0.00,Wunderground v.1.15,2013-06-28 08:07:00,
2013-06-28 04:17:00,66.4,63.4,29.48,SSE,168,0.0,0.0,90,0.00,,,0.00,Wunderground v.1.15,2013-06-28 08:17:00,
2013-06-28 04:22:00,66.4,63.4,29.48,SSE,168,0.0,0.0,90,0.00,,,0.00,Wunderground v.1.15,2013-06-28 08:22:00,
2013-06-28 04:32:00,66.4,63.4,29.48,SSE,168,0.0,0.0,90,0.00,,,0.00,Wunderground v.1.15,2013-06-28 08:32:00,
2013-06-28 04:37:00,66.4,63.4,29.48,SSE,168,0.0,0.0,90,0.00,,,0.00,Wunderground v.1.15,2013-06-28 08:37:00,
2013-06-28 04:47:00,66.4,63.4,29.47,SSE,168,0.0,0.0,90,0.00,,,0.00,Wunderground v.1.15,2013-06-28 08:47:00,
2013-06-28 04:52:00,66.4,63.4,29.47,SSE,168,0.0,0.0,90,0.00,,,0.00,Wunderground v.1.15,2013-06-28 08:52:00,
2013-06-28 05:02:00,66.4,63.7,29.48,SSE,168,0.0,0.0,91,0.00,,,0.00,Wunderground v.1.15,2013-06-28 09:02:00,
2013-06-28 05:07:00,66.4,63.4,29.48,SSE,168,0.0,0.0,90,0.00,,,0.00,Wunderground v.1.15,2013-06-28 09:07:00,
2013-06-28 05:12:00,66.4,63.7,29.48,South,182,0.0,1.0,91,0.00,,,0.00,Wunderground v.1.15,2013-06-28 09:12:00,
2013-06-28 05:17:00,66.4,63.7,29.48,South,182,0.0,1.0,91,0.00,,,0.00,Wunderground v.1.15,2013-06-28 09:17:00,
2013-06-28 05:22:00,66.4,63.7,29.48,South,184,0.0,0.0,91,0.00,,,0.00,Wunderground v.1.15,2013-06-28 09:22:00,
2013-06-28 05:32:00,66.4,63.7,29.48,South,184,0.0,0.0,91,0.00,,,0.00,Wunderground v.1.15,2013-06-28 09:32:00,
2013-06-28 05:37:00,66.4,63.7,29.48,South,184,0.0,0.0,91,0.00,,,0.00,Wunderground v.1.15,2013-06-28 09:37:00,
2013-06-28 05:47:00,66.4,63.7,29.48,South,184,0.0,0.0,91,0.00,,,0.00,Wunderground v.1.15,2013-06-28 09:47:00,
2013-06-28 05:52:00,66.4,63.7,29.48,South,184,0.0,0.0,91,0.00,,,0.00,Wunderground v.1.15,2013-06-28 09:52:00,
2013-06-28 06:02:00,66.4,63.7,29.48,South,184,0.0,0.0,91,0.00,,,0.00,Wunderground v.1.15,2013-06-28 10:02:00,
2013-06-28 06:07:00,66.4,63.7,29.48,South,184,0.0,0.0,91,0.00,,,0.00,Wunderground v.1.15,2013-06-28 10:07:00,
2013-06-28 06:17:00,66.6,63.9,29.48,South,184,0.0,0.0,91,0.00,,,0.00,Wunderground v.1.15,2013-06-28 10:17:00,
2013-06-28 06:22:00,66.6,63.9,29.48,South,184,0.0,0.0,91,0.00,,,0.00,Wunderground v.1.15,2013-06-28 10:22:00,
2013-06-28 06:32:00,66.6,63.9,29.48,South,184,0.0,0.0,91,0.00,,,0.00,Wunderground v.1.15,2013-06-28 10:32:00,
2013-06-28 06:37:00,66.6,63.9,29.48,South,184,0.0,0.0,91,0.00,,,0.00,Wunderground v.1.15,2013-06-28 10:37:00,
2013-06-28 06:47:00,66.4,63.7,29.48,South,184,0.0,0.0,91,0.00,,,0.00,Wunderground v.1.15,2013-06-28 10:47:00,
2013-06-28 06:52:00,66.6,63.9,29.48,South,184,0.0,0.0,91,0.00,,,0.00,Wunderground v.1.15,2013-06-28 10:52:00,
2013-06-28 07:02:00,66.6,63.9,29.48,South,184,0.0,0.0,91,0.00,,,0.00,Wunderground v.1.15,2013-06-28 11:02:00,
2013-06-28 07:07:00,66.6,63.9,29.48,South,184,0.0,0.0,91,0.00,,,0.00,Wunderground v.1.15,2013-06-28 11:07:00,
2013-06-28 07:17:00,66.6,64.2,29.48,South,184,0.0,0.0,92,0.00,,,0.00,Wunderground v.1.15,2013-06-28 11:17:00,
2013-06-28 07:22:00,66.8,64.4,29.48,South,184,0.0,0.0,92,0.00,,,0.00,Wunderground v.1.15,2013-06-28 11:22:00,
2013-06-28 07:32:00,66.8,64.4,29.48,South,184,0.0,0.0,92,0.00,,,0.00,Wunderground v.1.15,2013-06-28 11:32:00,
2013-06-28 07:37:00,66.8,64.4,29.48,South,184,0.0,0.0,92,0.00,,,0.00,Wunderground v.1.15,2013-06-28 11:37:00,
2013-06-28 07:47:00,66.9,64.5,29.48,South,184,0.0,0.0,92,0.08,,,0.02,Wunderground v.1.15,2013-06-28 11:47:00,
2013-06-28 07:52:00,66.9,64.5,29.48,South,184,0.0,0.0,92,0.32,,,0.04,Wunderground v.1.15,2013-06-28 11:52:00,
2013-06-28 08:02:00,66.9,64.5,29.48,South,184,0.0,0.0,92,0.11,,,0.06,Wunderground v.1.15,2013-06-28 12:02:00,
2013-06-28 08:07:00,66.9,64.5,29.48,South,184,0.0,0.0,92,0.10,,,0.07,Wunderground v.1.15,2013-06-28 12:07:00,
2013-06-28 08:17:00,67.1,64.4,29.48,South,184,0.0,0.0,91,0.06,,,0.08,Wunderground v.1.15,2013-06-28 12:17:00,
2013-06-28 08:22:00,66.9,64.2,29.48,South,184,0.0,0.0,91,0.06,,,0.08,Wunderground v.1.15,2013-06-28 12:22:00,
2013-06-28 08:32:00,66.4,64.0,29.47,NNE,16,0.0,0.0,92,0.05,,,0.09,Wunderground v.1.15,2013-06-28 12:32:00,
2013-06-28 08:37:00,66.3,63.9,29.47,NNE,16,0.0,0.0,92,0.04,,,0.09,Wunderground v.1.15,2013-06-28 12:37:00,
2013-06-28 08:47:00,66.0,63.3,29.47,NNE,16,0.0,0.0,91,0.04,,,0.10,Wunderground v.1.15,2013-06-28 12:47:00,
2013-06-28 08:53:00,65.8,63.1,29.47,NNE,16,0.0,0.0,91,0.05,,,0.11,Wunderground v.1.15,2013-06-28 12:53:00,
2013-06-28 09:02:00,66.0,63.3,29.47,NNE,16,0.0,0.0,91,0.05,,,0.11,Wunderground v.1.15,2013-06-28 13:02:00,
2013-06-28 09:07:00,65.8,63.1,29.47,NNE,16,0.0,0.0,91,0.05,,,0.12,Wunderground v.1.15,2013-06-28 13:07:00,
2013-06-28 09:17:00,65.5,62.8,29.47,NNE,16,0.0,0.0,91,0.04,,,0.12,Wunderground v.1.15,2013-06-28 13:17:00,
2013-06-28 09:23:00,65.3,62.6,29.47,North,0,0.0,0.0,91,0.00,,,0.12,Wunderground v.1.15,2013-06-28 13:23:00,
2013-06-28 09:32:00,65.2,62.5,29.47,WNW,298,0.0,0.0,91,0.00,,,0.12,Wunderground v.1.15,2013-06-28 13:32:00,
2013-06-28 09:37:00,65.0,62.3,29.47,NNW,330,0.0,0.0,91,0.00,,,0.12,Wunderground v.1.15,2013-06-28 13:37:00,
2013-06-28 09:47:00,64.8,62.1,29.47,NNW,342,0.0,0.0,91,0.00,,,0.12,Wunderground v.1.15,2013-06-28 13:47:00,
2013-06-28 09:52:00,64.7,62.3,29.47,NNW,346,0.0,0.0,92,0.00,,,0.12,Wunderground v.1.15,2013-06-28 13:52:00,
2013-06-28 10:02:00,64.5,62.1,29.47,NNW,346,0.0,0.0,92,0.00,,,0.12,Wunderground v.1.15,2013-06-28 14:02:00,
2013-06-28 10:07:00,64.7,62.6,29.47,North,350,0.0,0.0,93,0.00,,,0.13,Wunderground v.1.15,2013-06-28 14:07:00,
2013-06-28 10:17:00,64.7,62.3,29.47,North,0,0.0,0.0,92,0.00,,,0.13,Wunderground v.1.15,2013-06-28 14:17:00,
2013-06-28 10:23:00,64.7,62.3,29.47,North,0,0.0,0.0,92,0.00,,,0.13,Wunderground v.1.15,2013-06-28 14:23:00,
2013-06-28 10:32:00,64.8,62.4,29.47,North,0,0.0,0.0,92,0.00,,,0.13,Wunderground v.1.15,2013-06-28 14:32:00,
2013-06-28 10:37:00,64.7,62.0,29.47,North,0,0.0,0.0,91,0.00,,,0.13,Wunderground v.1.15,2013-06-28 14:37:00,
2013-06-28 10:47:00,64.5,62.1,29.47,ESE,102,0.0,1.0,92,0.00,,,0.13,Wunderground v.1.15,2013-06-28 14:47:00,
2013-06-28 10:52:00,64.3,61.9,29.47,East,100,0.0,2.0,92,0.00,,,0.13,Wunderground v.1.15,2013-06-28 14:52:00,
2013-06-28 11:02:00,64.2,61.5,29.46,East,99,0.0,0.0,91,0.00,,,0.13,Wunderground v.1.15,2013-06-28 15:02:00,
2013-06-28 11:07:00,64.2,61.8,29.46,East,97,0.0,0.0,92,0.00,,,0.13,Wunderground v.1.15,2013-06-28 15:07:00,
2013-06-28 11:17:00,64.0,61.3,29.46,East,88,0.0,2.0,91,0.00,,,0.13,Wunderground v.1.15,2013-06-28 15:17:00,
2013-06-28 11:22:00,63.9,61.2,29.46,East,88,0.0,0.0,91,0.00,,,0.13,Wunderground v.1.15,2013-06-28 15:22:00,
2013-06-28 11:32:00,64.0,61.3,29.46,NNE,18,0.0,0.0,91,0.00,,,0.13,Wunderground v.1.15,2013-06-28 15:32:00,
2013-06-28 11:37:00,64.2,61.8,29.46,NE,44,0.0,0.0,92,0.00,,,0.13,Wunderground v.1.15,2013-06-28 15:37:00,
2013-06-28 11:47:00,64.2,61.8,29.46,NNE,17,0.0,0.0,92,0.00,,,0.13,Wunderground v.1.15,2013-06-28 15:47:00,
2013-06-28 11:52:00,64.0,61.3,29.46,East,82,0.0,0.0,91,0.00,,,0.13,Wunderground v.1.15,2013-06-28 15:52:00,
2013-06-28 12:02:00,63.7,61.0,29.46,ENE,65,0.0,0.0,91,0.00,,,0.13,Wunderground v.1.15,2013-06-28 16:02:00,
2013-06-28 12:07:00,63.5,60.8,29.46,ESE,114,0.0,0.0,91,0.00,,,0.13,Wunderground v.1.15,2013-06-28 16:07:00,
2013-06-28 12:17:00,63.5,60.8,29.47,NNE,31,0.0,0.0,91,0.00,,,0.13,Wunderground v.1.15,2013-06-28 16:17:00,
2013-06-28 12:22:00,63.7,61.0,29.47,NE,49,0.0,0.0,91,0.00,,,0.13,Wunderground v.1.15,2013-06-28 16:22:00,
2013-06-28 12:32:00,63.7,61.0,29.46,NNE,16,0.0,0.0,91,0.00,,,0.13,Wunderground v.1.15,2013-06-28 16:32:00,
2013-06-28 12:37:00,63.5,60.8,29.46,NW,319,0.0,0.0,91,0.00,,,0.13,Wunderground v.1.15,2013-06-28 16:37:00,
2013-06-28 12:47:00,63.5,60.8,29.46,NNE,24,0.0,0.0,91,0.00,,,0.13,Wunderground v.1.15,2013-06-28 16:47:00,
2013-06-28 12:52:00,63.4,60.7,29.46,NNE,23,0.0,0.0,91,0.00,,,0.13,Wunderground v.1.15,2013-06-28 16:52:00,
2013-06-28 13:02:00,63.4,61.0,29.46,NNW,342,0.0,0.0,92,0.00,,,0.13,Wunderground v.1.15,2013-06-28 17:02:00,
2013-06-28 13:07:00,63.4,60.7,29.46,ESE,107,0.0,0.0,91,0.00,,,0.13,Wunderground v.1.15,2013-06-28 17:07:00,
2013-06-28 13:17:00,63.4,61.0,29.46,ESE,107,0.0,0.0,92,0.00,,,0.13,Wunderground v.1.15,2013-06-28 17:17:00,
2013-06-28 13:22:00,63.5,61.1,29.46,ESE,107,0.0,0.0,92,0.00,,,0.13,Wunderground v.1.15,2013-06-28 17:22:00,
2013-06-28 13:32:00,63.7,61.0,29.45,ESE,107,0.0,0.0,91,0.00,,,0.13,Wunderground v.1.15,2013-06-28 17:32:00,
2013-06-28 13:37:00,63.9,61.2,29.45,East,86,0.0,0.0,91,0.00,,,0.13,Wunderground v.1.15,2013-06-28 17:37:00,
2013-06-28 13:47:00,63.7,60.7,29.45,East,86,0.0,0.0,90,0.00,,,0.13,Wunderground v.1.15,2013-06-28 17:47:00,
2013-06-28 13:52:00,63.7,60.7,29.45,North,11,0.0,0.0,90,0.00,,,0.13,Wunderground v.1.15,2013-06-28 17:52:00,
2013-06-28 14:02:00,63.7,60.4,29.45,NNE,16,0.0,0.0,89,0.00,,,0.13,Wunderground v.1.15,2013-06-28 18:02:00,
2013-06-28 14:07:00,63.9,60.6,29.45,NNE,30,0.0,0.0,89,0.00,,,0.13,Wunderground v.1.15,2013-06-28 18:07:00,
2013-06-28 14:17:00,63.9,60.6,29.46,NNE,31,0.0,0.0,89,0.00,,,0.13,Wunderground v.1.15,2013-06-28 18:17:00,
2013-06-28 14:22:00,63.5,60.2,29.46,NE,42,0.0,0.0,89,0.00,,,0.13,Wunderground v.1.15,2013-06-28 18:22:00,
2013-06-28 14:32:00,63.7,60.4,29.46,NE,42,0.0,0.0,89,0.00,,,0.13,Wunderground v.1.15,2013-06-28 18:32:00,
2013-06-28 14:37:00,63.7,60.7,29.46,NE,37,0.0,2.0,90,0.00,,,0.13,Wunderground v.1.15,2013-06-28 18:37:00,
2013-06-28 14:47:00,63.5,59.9,29.46,East,90,0.0,0.0,88,0.00,,,0.13,Wunderground v.1.15,2013-06-28 18:47:00,
2013-06-28 14:52:00,63.5,59.9,29.46,East,88,0.0,1.0,88,0.00,,,0.13,Wunderground v.1.15,2013-06-28 18:52:00,
2013-06-28 15:02:00,63.5,60.2,29.46,North,0,0.0,0.0,89,0.00,,,0.14,Wunderground v.1.15,2013-06-28 19:02:00,
2013-06-28 15:07:00,63.5,60.2,29.46,North,0,0.0,0.0,89,0.06,,,0.15,Wunderground v.1.15,2013-06-28 19:07:00,
2013-06-28 15:17:00,63.4,60.1,29.46,North,7,0.0,0.0,89,0.05,,,0.15,Wunderground v.1.15,2013-06-28 19:17:00,
2013-06-28 15:22:00,63.4,60.1,29.46,North,7,0.0,0.0,89,0.00,,,0.15,Wunderground v.1.15,2013-06-28 19:22:00,
2013-06-28 15:32:00,63.2,59.9,29.47,North,7,0.0,0.0,89,0.31,,,0.19,Wunderground v.1.15,2013-06-28 19:32:00,
2013-06-28 15:38:00,63.1,59.8,29.47,North,7,0.0,0.0,89,0.19,,,0.21,Wunderground v.1.15,2013-06-28 19:38:00,
2013-06-28 15:47:00,62.9,59.6,29.46,North,7,0.0,0.0,89,0.17,,,0.23,Wunderground v.1.15,2013-06-28 19:47:00,
2013-06-28 15:52:00,62.9,59.9,29.46,North,7,0.0,2.0,90,0.12,,,0.24,Wunderground v.1.15,2013-06-28 19:52:00,
2013-06-28 16:02:00,62.7,59.7,29.45,NNE,28,0.0,0.0,90,0.24,,,0.28,Wunderground v.1.15,2013-06-28 20:02:00,
2013-06-28 16:12:00,62.7,60.0,29.45,ENE,59,0.0,0.0,91,0.23,,,0.32,Wunderground v.1.15,2013-06-28 20:12:00,
2013-06-28 16:17:00,62.7,60.0,29.45,ENE,59,0.0,0.0,91,0.20,,,0.34,Wunderground v.1.15,2013-06-28 20:17:00,
2013-06-28 16:22:00,62.9,60.2,29.45,ENE,59,0.0,0.0,91,0.19,,,0.35,Wunderground v.1.15,2013-06-28 20:22:00,
2013-06-28 16:32:00,63.1,60.4,29.45,NE,48,0.0,0.0,91,0.09,,,0.36,Wunderground v.1.15,2013-06-28 20:32:00,
2013-06-28 16:37:00,63.1,60.4,29.45,NE,37,0.0,1.0,91,0.05,,,0.36,Wunderground v.1.15,2013-06-28 20:37:00,
2013-06-28 16:47:00,63.4,60.7,29.44,NE,37,0.0,0.0,91,0.04,,,0.37,Wunderground v.1.15,2013-06-28 20:47:00,
2013-06-28 16:52:00,63.4,60.7,29.44,NE,37,0.0,0.0,91,0.04,,,0.37,Wunderground v.1.15,2013-06-28 20:52:00,
2013-06-28 17:02:00,63.4,61.3,29.44,NE,37,0.0,0.0,93,0.00,,,0.37,Wunderground v.1.15,2013-06-28 21:02:00,
2013-06-28 17:07:00,62.9,60.8,29.44,NNE,30,0.0,0.0,93,0.00,,,0.37,Wunderground v.1.15,2013-06-28 21:07:00,
2013-06-28 17:17:00,62.9,60.5,29.44,NNE,28,0.0,0.0,92,0.00,,,0.37,Wunderground v.1.15,2013-06-28 21:17:00,
2013-06-28 17:22:00,62.9,60.5,29.44,NNE,28,0.0,0.0,92,0.00,,,0.37,Wunderground v.1.15,2013-06-28 21:22:00,
2013-06-28 17:32:00,62.6,60.2,29.44,North,357,0.0,2.0,92,0.00,,,0.37,Wunderground v.1.15,2013-06-28 21:32:00,
2013-06-28 17:37:00,62.4,60.0,29.44,NNE,17,0.0,2.0,92,0.00,,,0.37,Wunderground v.1.15,2013-06-28 21:37:00,
2013-06-28 17:47:00,62.3,59.9,29.44,NNE,17,0.0,0.0,92,0.00,,,0.37,Wunderground v.1.15,2013-06-28 21:47:00,
2013-06-28 17:52:00,62.3,59.9,29.44,NNE,13,0.0,0.0,92,0.00,,,0.37,Wunderground v.1.15,2013-06-28 21:52:00,
2013-06-28 18:02:00,62.0,59.3,29.45,NNE,14,0.0,0.0,91,0.00,,,0.37,Wunderground v.1.15,2013-06-28 22:02:00,
2013-06-28 18:07:00,62.0,59.6,29.45,ESE,113,0.0,0.0,92,0.00,,,0.37,Wunderground v.1.15,2013-06-28 22:07:00,
2013-06-28 18:17:00,62.0,59.6,29.45,ESE,113,0.0,0.0,92,0.00,,,0.37,Wunderground v.1.15,2013-06-28 22:17:00,
2013-06-28 18:22:00,62.0,59.6,29.45,ESE,113,0.0,0.0,92,0.00,,,0.37,Wunderground v.1.15,2013-06-28 22:22:00,
2013-06-28 18:32:00,62.0,60.0,29.45,ESE,113,0.0,0.0,93,0.00,,,0.37,Wunderground v.1.15,2013-06-28 22:32:00,
2013-06-28 18:37:00,62.0,60.0,29.45,ESE,113,0.0,0.0,93,0.00,,,0.37,Wunderground v.1.15,2013-06-28 22:37:00,
2013-06-28 18:47:00,62.0,59.6,29.46,ESE,113,0.0,0.0,92,0.00,,,0.37,Wunderground v.1.15,2013-06-28 22:47:00,
2013-06-28 18:52:00,62.0,59.6,29.46,ESE,113,0.0,0.0,92,0.00,,,0.37,Wunderground v.1.15,2013-06-28 22:52:00,
2013-06-28 19:02:00,61.8,59.5,29.45,East,88,0.0,0.0,92,0.00,,,0.38,Wunderground v.1.15,2013-06-28 23:02:00,
2013-06-28 19:07:00,62.0,60.0,29.45,East,88,0.0,0.0,93,0.12,,,0.39,Wunderground v.1.15,2013-06-28 23:07:00,
2013-06-28 19:17:00,62.0,59.6,29.46,East,88,0.0,0.0,92,0.34,,,0.42,Wunderground v.1.15,2013-06-28 23:17:00,
2013-06-28 19:22:00,62.0,59.6,29.46,East,88,0.0,0.0,92,0.39,,,0.45,Wunderground v.1.15,2013-06-28 23:22:00,
2013-06-28 19:32:00,62.0,59.6,29.47,East,88,0.0,0.0,92,0.31,,,0.49,Wunderground v.1.15,2013-06-28 23:32:00,
2013-06-28 19:37:00,62.0,59.6,29.47,East,88,0.0,0.0,92,0.29,,,0.52,Wunderground v.1.15,2013-06-28 23:37:00,
2013-06-28 19:47:00,61.8,59.5,29.46,East,88,0.0,0.0,92,0.18,,,0.56,Wunderground v.1.15,2013-06-28 23:47:00,
2013-06-28 19:52:00,61.8,59.5,29.46,East,88,0.0,0.0,92,0.11,,,0.56,Wunderground v.1.15,2013-06-28 23:52:00,
2013-06-28 20:02:00,61.6,59.6,29.46,East,88,0.0,0.0,93,0.06,,,0.57,Wunderground v.1.15,2013-06-29 00:02:00,
2013-06-28 20:07:00,61.6,59.3,29.46,East,88,0.0,0.0,92,0.04,,,0.57,Wunderground v.1.15,2013-06-29 00:07:00,
2013-06-28 20:17:00,61.6,59.3,29.46,East,88,0.0,0.0,92,0.04,,,0.58,Wunderground v.1.15,2013-06-29 00:17:00,
2013-06-28 20:22:00,61.6,59.3,29.46,East,88,0.0,0.0,92,0.04,,,0.58,Wunderground v.1.15,2013-06-29 00:22:00,
2013-06-28 20:32:00,61.6,59.3,29.46,East,88,0.0,0.0,92,0.00,,,0.58,Wunderground v.1.15,2013-06-29 00:32:00,
2013-06-28 20:37:00,61.6,59.3,29.46,East,88,0.0,0.0,92,0.00,,,0.58,Wunderground v.1.15,2013-06-29 00:37:00,
2013-06-28 20:47:00,61.8,59.5,29.46,East,88,0.0,0.0,92,0.00,,,0.59,Wunderground v.1.15,2013-06-29 00:47:00,
2013-06-28 20:52:00,61.8,59.5,29.46,East,88,0.0,0.0,92,0.05,,,0.60,Wunderground v.1.15,2013-06-29 00:52:00,
2013-06-28 21:02:00,61.8,59.5,29.45,East,90,0.0,0.0,92,0.05,,,0.60,Wunderground v.1.15,2013-06-29 01:02:00,
2013-06-28 21:07:00,61.8,59.5,29.45,East,90,0.0,0.0,92,0.04,,,0.60,Wunderground v.1.15,2013-06-29 01:07:00,
2013-06-28 21:17:00,61.6,59.3,29.46,North,3,0.0,0.0,92,0.00,,,0.60,Wunderground v.1.15,2013-06-29 01:17:00,
2013-06-28 21:23:00,61.6,59.3,29.46,North,3,0.0,0.0,92,0.00,,,0.60,Wunderground v.1.15,2013-06-29 01:23:00,
2013-06-28 21:32:00,61.6,59.3,29.46,North,3,0.0,0.0,92,0.00,,,0.60,Wunderground v.1.15,2013-06-29 01:32:00,
2013-06-28 21:37:00,61.6,59.3,29.46,North,3,0.0,0.0,92,0.00,,,0.60,Wunderground v.1.15,2013-06-29 01:37:00,
2013-06-28 21:47:00,61.5,59.2,29.46,North,3,0.0,0.0,92,0.00,,,0.60,Wunderground v.1.15,2013-06-29 01:47:00,
2013-06-28 21:53:00,61.6,59.3,29.46,North,3,0.0,0.0,92,0.00,,,0.60,Wunderground v.1.15,2013-06-29 01:53:00,
2013-06-28 22:02:00,61.6,59.3,29.47,North,3,0.0,0.0,92,0.00,,,0.60,Wunderground v.1.15,2013-06-29 02:02:00,
2013-06-28 22:08:00,61.8,59.5,29.47,North,3,0.0,0.0,92,0.00,,,0.61,Wunderground v.1.15,2013-06-29 02:08:00,
2013-06-28 22:17:00,61.6,59.3,29.47,North,3,0.0,0.0,92,0.00,,,0.61,Wunderground v.1.15,2013-06-29 02:17:00,
2013-06-28 22:22:00,61.6,59.3,29.47,North,3,0.0,0.0,92,0.00,,,0.61,Wunderground v.1.15,2013-06-29 02:22:00,
2013-06-28 22:32:00,61.8,59.5,29.47,North,3,0.0,0.0,92,0.00,,,0.61,Wunderground v.1.15,2013-06-29 02:32:00,
2013-06-28 22:37:00,61.8,59.5,29.47,North,3,0.0,0.0,92,0.00,,,0.61,Wunderground v.1.15,2013-06-29 02:37:00,
2013-06-28 22:47:00,62.0,59.6,29.47,North,3,0.0,0.0,92,0.00,,,0.61,Wunderground v.1.15,2013-06-29 02:47:00,
2013-06-28 22:52:00,62.0,59.6,29.47,North,3,0.0,0.0,92,0.00,,,0.61,Wunderground v.1.15,2013-06-29 02:52:00,
2013-06-28 23:02:00,62.0,59.6,29.47,North,3,0.0,0.0,92,0.00,,,0.61,Wunderground v.1.15,2013-06-29 03:02:00,
2013-06-28 23:12:00,62.0,59.6,29.47,North,3,0.0,0.0,92,0.00,,,0.61,Wunderground v.1.15,2013-06-29 03:12:00,
2013-06-28 23:22:00,61.8,59.5,29.47,North,3,0.0,0.0,92,0.00,,,0.61,Wunderground v.1.15,2013-06-29 03:22:00,
2013-06-28 23:32:00,61.8,59.5,29.47,North,3,0.0,0.0,92,0.00,,,0.61,Wunderground v.1.15,2013-06-29 03:32:00,
2013-06-28 23:37:00,62.0,59.6,29.47,North,3,0.0,0.0,92,0.00,,,0.61,Wunderground v.1.15,2013-06-29 03:37:00,
2013-06-28 23:47:00,62.0,59.6,29.47,North,3,0.0,0.0,92,0.00,,,0.62,Wunderground v.1.15,2013-06-29 03:47:00,
2013-06-28 23:52:00,62.0,59.6,29.47,North,3,0.0,0.0,92,0.14,,,0.63,Wunderground v.1.15,2013-06-29 03:52:00,